createdAt,value
2022-09-26T00:01:36.799Z,19.60
2022-09-26T00:04:08.222Z,18.30
2022-09-26T00:06:36.497Z,19.00
2022-09-26T00:09:04.626Z,17.60
2022-09-26T00:11:33.616Z,18.30
2022-09-26T00:14:05.604Z,17.90
2022-09-26T00:16:33.672Z,19.30
2022-09-26T00:19:01.812Z,20.70
2022-09-26T00:21:30.500Z,17.40
2022-09-26T00:24:00.451Z,19.70
2022-09-26T00:26:31.107Z,19.60
2022-09-26T00:29:01.225Z,19.50
2022-09-26T00:31:33.335Z,19.30
2022-09-26T00:34:01.868Z,19.20
2022-09-26T00:36:38.030Z,19.70
2022-09-26T00:39:08.505Z,19.70
2022-09-26T00:41:37.548Z,18.80
2022-09-26T00:44:37.570Z,20.70
2022-09-26T00:47:13.358Z,19.70
2022-09-26T00:49:44.782Z,18.80
2022-09-26T00:52:20.236Z,18.90
2022-09-26T00:54:52.648Z,18.00
2022-09-26T00:57:45.449Z,19.20
2022-09-26T01:00:15.248Z,17.20
2022-09-26T01:02:45.469Z,19.80
2022-09-26T01:05:16.943Z,19.00
2022-09-26T01:07:45.458Z,17.70
2022-09-26T01:10:13.818Z,20.90
2022-09-26T01:12:43.100Z,19.80
2022-09-26T01:15:11.637Z,20.20
2022-09-26T01:17:42.954Z,21.10
2022-09-26T01:20:34.720Z,19.80
2022-09-26T01:23:24.709Z,19.80
2022-09-26T01:26:20.360Z,21.20
2022-09-26T01:29:06.468Z,17.60
2022-09-26T01:32:14.767Z,17.70
2022-09-26T01:35:27.149Z,17.90
2022-09-26T01:38:21.940Z,17.70
2022-09-26T01:41:08.288Z,18.90
2022-09-26T01:43:55.145Z,19.50
2022-09-26T01:46:38.666Z,18.70
2022-09-26T01:49:16.512Z,20.00
2022-09-26T01:52:12.268Z,16.40
2022-09-26T01:54:54.623Z,19.70
2022-09-26T01:57:44.471Z,19.20
2022-09-26T02:00:12.812Z,19.30
2022-09-26T02:02:47.531Z,18.80
2022-09-26T02:05:33.644Z,20.10
2022-09-26T02:08:16.042Z,16.30
2022-09-26T02:10:50.588Z,20.00
2022-09-26T02:13:30.039Z,17.20
2022-09-26T02:16:09.338Z,19.20
2022-09-26T02:18:54.563Z,18.20
2022-09-26T02:21:24.535Z,18.80
2022-09-26T02:23:54.804Z,19.60
2022-09-26T02:26:23.802Z,16.90
2022-09-26T02:28:52.653Z,17.60
2022-09-26T02:31:24.975Z,19.60
2022-09-26T02:33:54.391Z,19.40
2022-09-26T02:36:24.144Z,20.30
2022-09-26T02:38:51.971Z,18.60
2022-09-26T02:41:59.419Z,17.40
2022-09-26T02:44:55.804Z,16.70
2022-09-26T02:47:50.804Z,16.60
2022-09-26T02:50:35.128Z,17.30
2022-09-26T02:53:32.196Z,15.50
2022-09-26T02:56:28.129Z,15.80
2022-09-26T02:59:13.297Z,17.10
2022-09-26T03:02:05.754Z,18.60
2022-09-26T03:04:48.051Z,16.90
2022-09-26T03:07:24.496Z,17.00
2022-09-26T03:09:55.010Z,17.50
2022-09-26T03:12:28.378Z,17.60
2022-09-26T03:15:00.731Z,16.80
2022-09-26T03:17:29.509Z,19.20
2022-09-26T03:20:05.286Z,17.80
2022-09-26T03:22:34.228Z,16.50
2022-09-26T03:25:03.532Z,16.90
2022-09-26T03:27:34.765Z,16.70
2022-09-26T03:30:03.136Z,18.30
2022-09-26T03:32:32.399Z,16.10
2022-09-26T03:35:00.075Z,14.90
2022-09-26T03:37:28.471Z,12.50
2022-09-26T03:39:56.230Z,15.20
2022-09-26T03:42:34.921Z,14.50
2022-09-26T03:45:05.553Z,15.60
2022-09-26T03:47:59.522Z,15.30
2022-09-26T03:50:27.307Z,15.30
2022-09-26T03:52:55.129Z,15.70
2022-09-26T03:55:23.419Z,15.00
2022-09-26T03:57:51.955Z,17.00
2022-09-26T04:00:26.613Z,15.80
2022-09-26T04:02:54.554Z,16.30
2022-09-26T04:05:35.161Z,17.40
2022-09-26T04:08:04.471Z,19.50
2022-09-26T04:10:33.351Z,17.10
2022-09-26T04:13:01.418Z,17.10
2022-09-26T04:15:30.116Z,18.00
2022-09-26T04:18:06.925Z,20.00
2022-09-26T04:20:34.960Z,20.40
2022-09-26T04:23:03.412Z,21.10
2022-09-26T04:25:32.181Z,20.90
2022-09-26T04:28:00.121Z,19.80
2022-09-26T04:30:29.801Z,19.20
2022-09-26T04:33:00.820Z,22.40
2022-09-26T04:35:53.721Z,21.00
2022-09-26T04:38:21.821Z,21.10
2022-09-26T04:40:49.993Z,21.40
2022-09-26T04:43:17.933Z,21.00
2022-09-26T04:45:45.884Z,22.10
2022-09-26T04:48:13.907Z,24.90
2022-09-26T04:50:44.464Z,21.80
2022-09-26T04:53:13.459Z,23.40
2022-09-26T04:55:49.707Z,25.00
2022-09-26T04:58:17.729Z,22.00
2022-09-26T05:00:48.033Z,25.30
2022-09-26T05:03:18.842Z,20.60
2022-09-26T05:05:50.562Z,23.20
2022-09-26T05:08:18.434Z,23.30
2022-09-26T05:10:52.906Z,20.70
2022-09-26T05:13:22.205Z,22.90
2022-09-26T05:15:54.335Z,21.40
2022-09-26T05:18:25.164Z,22.50
2022-09-26T05:20:54.225Z,23.60
2022-09-26T05:23:44.947Z,26.40
2022-09-26T05:26:24.179Z,24.90
2022-09-26T05:28:55.707Z,24.20
2022-09-26T05:31:29.144Z,25.30
2022-09-26T05:33:57.300Z,25.60
2022-09-26T05:36:26.343Z,25.80
2022-09-26T05:38:54.749Z,22.50
2022-09-26T05:41:23.180Z,23.10
2022-09-26T05:43:51.629Z,22.90
2022-09-26T05:46:19.617Z,24.10
2022-09-26T05:48:49.386Z,24.90
2022-09-26T05:51:21.205Z,23.30
2022-09-26T05:53:49.672Z,22.30
2022-09-26T05:56:20.333Z,23.80
2022-09-26T05:59:07.066Z,23.50
2022-09-26T06:01:53.684Z,23.30
2022-09-26T06:04:47.308Z,24.90
2022-09-26T06:07:54.255Z,24.70
2022-09-26T06:10:39.137Z,24.00
2022-09-26T06:13:07.998Z,22.90
2022-09-26T06:15:43.762Z,25.90
2022-09-26T06:18:11.572Z,22.30
2022-09-26T06:20:39.470Z,25.90
2022-09-26T06:23:07.548Z,24.70
2022-09-26T06:25:38.763Z,24.40
2022-09-26T06:28:07.252Z,28.80
2022-09-26T06:30:37.396Z,24.00
2022-09-26T06:33:22.187Z,26.30
2022-09-26T06:36:16.908Z,24.00
2022-09-26T06:38:45.927Z,24.90
2022-09-26T06:41:17.693Z,27.00
2022-09-26T06:43:46.581Z,58.90
2022-09-26T06:46:33.121Z,35.60
2022-09-26T06:49:15.282Z,30.50
2022-09-26T06:51:57.154Z,28.70
2022-09-26T06:54:25.084Z,28.30
2022-09-26T06:56:53.217Z,30.30
2022-09-26T06:59:23.344Z,29.10
2022-09-26T07:02:12.385Z,30.10
2022-09-26T07:04:59.807Z,30.50
2022-09-26T07:07:43.466Z,32.30
2022-09-26T07:10:19.470Z,30.30
2022-09-26T07:13:05.295Z,29.00
2022-09-26T07:15:35.427Z,29.20
2022-09-26T07:18:12.187Z,28.00
2022-09-26T07:20:56.942Z,30.00
2022-09-26T07:23:46.559Z,62.10
2022-09-26T07:26:14.778Z,27.50
2022-09-26T07:28:42.578Z,25.70
2022-09-26T07:31:11.152Z,26.40
2022-09-26T07:34:10.201Z,31.50
2022-09-26T07:36:40.877Z,32.60
2022-09-26T07:39:10.006Z,27.80
2022-09-26T07:41:37.883Z,34.00
2022-09-26T07:47:12.388Z,22.20
2022-09-26T07:49:59.126Z,29.10
2022-09-26T07:52:37.588Z,21.10
2022-09-26T07:55:24.870Z,23.10
2022-09-26T07:58:07.255Z,19.50
2022-09-26T08:00:55.419Z,20.80
2022-09-26T08:03:37.612Z,20.20
2022-09-26T08:06:17.955Z,18.70
2022-09-26T08:08:47.697Z,22.60
2022-09-26T08:11:44.752Z,26.30
2022-09-26T08:14:22.254Z,19.00
2022-09-26T08:17:17.516Z,26.20
2022-09-26T08:19:45.513Z,19.70
2022-09-26T08:22:14.643Z,20.00
2022-09-26T08:24:45.309Z,22.50
2022-09-26T08:27:53.248Z,18.60
2022-09-26T08:30:23.802Z,21.10
2022-09-26T08:32:59.103Z,19.20
2022-09-26T08:35:27.062Z,19.50
2022-09-26T08:37:54.823Z,20.70
2022-09-26T08:40:50.486Z,18.70
2022-09-26T08:43:57.826Z,20.50
2022-09-26T08:47:01.773Z,22.00
2022-09-26T08:49:51.038Z,20.20
2022-09-26T08:52:46.665Z,19.30
2022-09-26T08:55:20.265Z,20.10
2022-09-26T08:58:00.692Z,23.70
2022-09-26T09:00:32.481Z,23.20
2022-09-26T09:03:31.679Z,20.50
2022-09-26T09:06:07.646Z,24.20
2022-09-26T09:08:40.139Z,25.50
2022-09-26T09:11:51.279Z,25.00
2022-09-26T09:14:37.971Z,19.50
2022-09-26T09:17:39.239Z,22.40
2022-09-26T09:21:08.710Z,26.40
2022-09-26T09:24:16.855Z,22.80
2022-09-26T09:30:18.080Z,19.50
2022-09-26T09:33:19.521Z,24.10
2022-09-26T09:36:16.761Z,20.00
2022-09-26T09:39:07.340Z,25.20
2022-09-26T09:41:52.611Z,18.60
2022-09-26T09:45:04.114Z,20.10
2022-09-26T09:47:39.363Z,16.30
2022-09-26T09:50:46.737Z,17.90
2022-09-26T09:53:25.351Z,14.80
2022-09-26T09:55:53.267Z,15.50
2022-09-26T09:58:52.058Z,14.00
2022-09-26T10:01:35.729Z,14.60
2022-09-26T10:04:27.808Z,16.20
2022-09-26T10:06:56.323Z,13.00
2022-09-26T10:09:40.679Z,16.40
2022-09-26T10:12:33.206Z,11.40
2022-09-26T10:15:27.352Z,11.10
2022-09-26T10:18:24.836Z,10.20
2022-09-26T10:21:19.714Z,11.70
2022-09-26T10:23:50.574Z,11.50
2022-09-26T10:26:37.312Z,12.60
2022-09-26T10:29:35.372Z,11.70
2022-09-26T10:32:03.808Z,9.90
2022-09-26T10:34:35.326Z,13.00
2022-09-26T10:37:22.460Z,14.30
2022-09-26T10:40:12.511Z,11.30
2022-09-26T10:42:41.400Z,11.20
2022-09-26T10:45:16.034Z,11.30
2022-09-26T10:48:12.460Z,14.60
2022-09-26T10:51:00.644Z,12.80
2022-09-26T10:53:47.827Z,13.10
2022-09-26T10:56:20.742Z,23.30
2022-09-26T10:58:52.279Z,13.60
2022-09-26T11:01:26.582Z,13.60
2022-09-26T11:04:00.432Z,13.50
2022-09-26T11:06:33.300Z,11.00
2022-09-26T11:09:27.690Z,15.10
2022-09-26T11:12:26.299Z,10.80
2022-09-26T11:14:59.292Z,12.50
2022-09-26T11:17:45.232Z,15.30
2022-09-26T11:20:17.636Z,11.90
2022-09-26T11:22:53.328Z,11.70
2022-09-26T11:25:29.455Z,10.70
2022-09-26T11:28:08.938Z,8.80
2022-09-26T11:31:10.214Z,11.00
2022-09-26T11:33:45.919Z,9.80
2022-09-26T11:36:56.216Z,9.90
2022-09-26T11:39:54.205Z,9.40
2022-09-26T11:42:35.407Z,11.70
2022-09-26T11:45:15.522Z,10.10
2022-09-26T11:48:17.228Z,9.70
2022-09-26T11:51:42.116Z,9.90
2022-09-26T11:54:32.683Z,9.30
2022-09-26T11:57:12.558Z,9.20
2022-09-26T12:00:13.314Z,11.10
2022-09-26T12:02:48.906Z,10.50
2022-09-26T12:05:27.399Z,12.80
2022-09-26T12:08:14.801Z,10.80
2022-09-26T12:10:57.039Z,13.10
2022-09-26T12:13:35.304Z,11.30
2022-09-26T12:16:24.329Z,11.20
2022-09-26T12:19:16.710Z,11.90
2022-09-26T12:22:20.391Z,11.90
2022-09-26T12:25:16.552Z,11.40
2022-09-26T12:28:13.360Z,11.40
2022-09-26T12:30:53.265Z,11.20
2022-09-26T12:33:33.340Z,11.20
2022-09-26T12:36:11.754Z,11.80
2022-09-26T12:38:40.153Z,14.40
2022-09-26T12:41:25.337Z,11.90
2022-09-26T12:44:13.016Z,10.60
2022-09-26T12:46:53.686Z,10.30
2022-09-26T12:49:33.735Z,12.20
2022-09-26T12:52:15.657Z,10.20
2022-09-26T12:55:15.773Z,11.20
2022-09-26T12:58:16.885Z,14.00
2022-09-26T13:00:54.490Z,10.20
2022-09-26T13:03:56.324Z,10.00
2022-09-26T13:06:38.961Z,8.20
2022-09-26T13:09:16.067Z,9.40
2022-09-26T13:11:58.067Z,11.30
2022-09-26T13:14:55.329Z,11.30
2022-09-26T13:17:46.415Z,23.00
2022-09-26T13:20:41.244Z,21.50
2022-09-26T13:23:17.663Z,13.20
2022-09-26T13:25:56.602Z,49.40
2022-09-26T13:28:38.441Z,15.60
2022-09-26T13:31:18.924Z,19.20
2022-09-26T13:34:01.565Z,14.80
2022-09-26T13:36:32.445Z,9.80
2022-09-26T13:39:08.479Z,7.90
2022-09-26T13:42:01.466Z,11.60
2022-09-26T13:44:44.991Z,13.00
2022-09-26T13:47:27.177Z,24.00
2022-09-26T13:49:58.857Z,57.90
2022-09-26T13:52:57.837Z,49.30
2022-09-26T13:55:26.497Z,25.70
2022-09-26T13:58:03.219Z,15.10
2022-09-26T14:00:31.730Z,30.20
2022-09-26T14:03:18.255Z,13.50
2022-09-26T14:05:52.239Z,19.10
2022-09-26T14:08:44.973Z,23.00
2022-09-26T14:11:25.629Z,15.50
2022-09-26T14:14:19.003Z,11.00
2022-09-26T14:16:48.797Z,12.20
2022-09-26T14:19:38.417Z,15.80
2022-09-26T14:22:26.291Z,22.20
2022-09-26T14:24:57.261Z,17.90
2022-09-26T14:27:36.474Z,12.90
2022-09-26T14:30:30.601Z,11.00
2022-09-26T14:33:02.727Z,10.20
2022-09-26T14:35:33.595Z,15.00
2022-09-26T14:38:17.503Z,15.50
2022-09-26T14:40:58.105Z,18.70
2022-09-26T14:43:29.968Z,12.60
2022-09-26T14:46:03.964Z,8.90
2022-09-26T14:48:40.123Z,7.00
2022-09-26T14:51:18.780Z,5.90
2022-09-26T14:54:12.312Z,6.90
2022-09-26T14:56:46.576Z,8.20
2022-09-26T14:59:36.364Z,6.80
2022-09-26T15:02:28.868Z,7.10
2022-09-26T15:05:08.914Z,6.90
2022-09-26T15:07:49.673Z,8.10
2022-09-26T15:10:22.557Z,7.70
2022-09-26T15:13:08.700Z,8.00
2022-09-26T15:15:50.832Z,22.60
2022-09-26T15:18:28.095Z,22.10
2022-09-26T15:21:04.884Z,72.90
2022-09-26T15:23:34.948Z,58.30
2022-09-26T15:26:03.149Z,47.00
2022-09-26T15:28:38.017Z,27.70
2022-09-26T15:31:21.547Z,21.50
2022-09-26T15:33:57.362Z,24.80
2022-09-26T15:36:28.982Z,25.30
2022-09-26T15:38:58.466Z,28.30
2022-09-26T15:41:45.059Z,53.90
2022-09-26T15:44:22.967Z,56.80
2022-09-26T15:46:51.358Z,45.40
2022-09-26T15:49:22.436Z,43.80
2022-09-26T15:51:54.511Z,39.00
2022-09-26T15:54:30.876Z,34.30
2022-09-26T15:57:07.183Z,27.10
2022-09-26T15:59:41.368Z,30.40
2022-09-26T16:02:28.527Z,42.60
2022-09-26T16:04:56.980Z,40.50
2022-09-26T16:07:28.278Z,34.20
2022-09-26T16:09:57.530Z,27.10
2022-09-26T16:12:31.834Z,21.00
2022-09-26T16:15:04.318Z,22.70
2022-09-26T16:17:49.568Z,21.10
2022-09-26T16:20:17.236Z,25.90
2022-09-26T16:22:51.685Z,27.80
2022-09-26T16:25:23.013Z,30.10
2022-09-26T16:27:58.364Z,32.10
2022-09-26T16:30:30.095Z,32.50
2022-09-26T16:33:07.601Z,34.20
2022-09-26T16:35:43.482Z,27.20
2022-09-26T16:38:14.368Z,27.10
2022-09-26T16:40:53.110Z,23.80
2022-09-26T16:43:31.832Z,21.70
2022-09-26T16:46:18.384Z,30.00
2022-09-26T16:48:51.333Z,38.30
2022-09-26T16:51:25.476Z,28.10
2022-09-26T16:54:11.961Z,29.00
2022-09-26T16:56:41.741Z,34.90
2022-09-26T16:59:28.917Z,31.30
2022-09-26T17:02:02.492Z,25.50
2022-09-26T17:04:32.919Z,38.30
2022-09-26T17:07:08.879Z,32.90
2022-09-26T17:09:38.348Z,42.40
2022-09-26T17:12:15.463Z,53.60
2022-09-26T17:14:46.024Z,45.70
2022-09-26T17:17:22.020Z,46.20
2022-09-26T17:19:56.742Z,45.90
2022-09-26T17:22:28.349Z,54.70
2022-09-26T17:24:56.632Z,82.00
2022-09-26T17:27:32.774Z,39.90
2022-09-26T17:30:02.545Z,36.90
2022-09-26T17:32:33.638Z,94.60
2022-09-26T17:35:04.941Z,72.80
2022-09-26T17:37:33.117Z,19.60
2022-09-26T17:40:01.239Z,16.10
2022-09-26T17:42:30.386Z,17.20
2022-09-26T17:44:58.304Z,17.10
2022-09-26T17:47:26.602Z,25.80
2022-09-26T17:49:56.276Z,21.50
2022-09-26T17:52:29.250Z,21.80
2022-09-26T17:55:00.032Z,22.30
2022-09-26T17:57:30.239Z,16.50
2022-09-26T17:59:58.341Z,16.60
2022-09-26T18:02:31.106Z,14.70
2022-09-26T18:05:03.592Z,13.70
2022-09-26T18:07:36.783Z,13.90
2022-09-26T18:10:07.791Z,16.70
2022-09-26T18:12:36.242Z,13.80
2022-09-26T18:15:04.830Z,19.00
2022-09-26T18:17:32.806Z,17.50
2022-09-26T18:20:00.824Z,13.60
2022-09-26T18:22:32.878Z,13.20
2022-09-26T18:25:09.240Z,14.80
2022-09-26T18:27:40.717Z,12.60
2022-09-26T18:30:14.132Z,13.40
2022-09-26T18:32:45.978Z,12.90
2022-09-26T18:35:19.924Z,12.60
2022-09-26T18:37:47.775Z,11.60
2022-09-26T18:40:16.739Z,10.90
2022-09-26T18:42:45.420Z,15.30
2022-09-26T18:45:17.064Z,15.80
2022-09-26T18:47:45.379Z,14.80
2022-09-26T18:50:29.913Z,25.50
2022-09-26T18:52:57.823Z,51.10
2022-09-26T18:55:45.559Z,22.60
2022-09-26T18:58:24.012Z,18.00
2022-09-26T19:00:56.754Z,15.80
2022-09-26T19:03:28.371Z,15.30
2022-09-26T19:06:03.624Z,16.80
2022-09-26T19:08:38.216Z,16.00
2022-09-26T19:11:13.051Z,16.40
2022-09-26T19:13:46.082Z,16.60
2022-09-26T19:16:14.106Z,19.70
2022-09-26T19:18:42.817Z,46.60
2022-09-26T19:21:35.223Z,61.50
2022-09-26T19:24:20.328Z,65.80
2022-09-26T19:27:03.638Z,66.40
2022-09-26T19:29:40.001Z,53.90
2022-09-26T19:32:23.846Z,52.30
2022-09-26T19:34:55.584Z,38.30
2022-09-26T19:37:23.690Z,41.80
2022-09-26T19:39:51.643Z,30.50
2022-09-26T19:42:19.757Z,37.50
2022-09-26T19:44:49.256Z,26.50
2022-09-26T19:47:23.378Z,33.20
2022-09-26T19:49:52.994Z,30.30
2022-09-26T19:52:22.555Z,38.30
2022-09-26T19:54:50.550Z,34.70
2022-09-26T19:57:20.935Z,28.10
2022-09-26T19:59:50.292Z,27.30
2022-09-26T20:02:22.072Z,25.90
2022-09-26T20:04:51.221Z,23.70
2022-09-26T20:07:19.938Z,24.20
2022-09-26T20:09:48.396Z,20.80
2022-09-26T20:12:16.245Z,21.70
2022-09-26T20:14:44.025Z,22.50
2022-09-26T20:17:14.649Z,22.40
2022-09-26T20:19:45.987Z,18.40
2022-09-26T20:22:16.545Z,22.30
2022-09-26T20:24:47.546Z,20.90
2022-09-26T20:27:19.811Z,18.30
2022-09-26T20:30:07.902Z,19.50
2022-09-26T20:32:37.187Z,19.40
2022-09-26T20:35:06.399Z,19.40
2022-09-26T20:37:39.064Z,19.10
2022-09-26T20:40:14.821Z,17.60
2022-09-26T20:42:45.515Z,22.10
2022-09-26T20:45:19.559Z,21.90
2022-09-26T20:47:47.767Z,18.20
2022-09-26T20:50:19.272Z,19.00
2022-09-26T20:52:47.200Z,18.90
2022-09-26T20:55:19.461Z,18.10
2022-09-26T20:57:48.368Z,18.20
2022-09-26T21:00:19.457Z,25.00
2022-09-26T21:02:51.768Z,20.90
2022-09-26T21:05:25.415Z,20.90
2022-09-26T21:07:55.830Z,21.10
2022-09-26T21:10:25.769Z,21.30
2022-09-26T21:12:54.130Z,20.80
2022-09-26T21:15:23.424Z,20.40
2022-09-26T21:17:53.308Z,21.60
2022-09-26T21:20:25.907Z,19.00
2022-09-26T21:23:10.762Z,19.70
2022-09-26T21:25:38.651Z,20.90
2022-09-26T21:28:11.344Z,19.80
2022-09-26T21:30:39.433Z,18.40
2022-09-26T21:33:12.704Z,18.10
2022-09-26T21:35:41.750Z,19.10
2022-09-26T21:38:09.733Z,18.00
2022-09-26T21:40:40.327Z,18.20
2022-09-26T21:43:14.914Z,18.20
2022-09-26T21:45:45.587Z,16.90
2022-09-26T21:48:15.068Z,18.90
2022-09-26T21:50:58.294Z,19.20
2022-09-26T21:53:33.077Z,16.00
2022-09-26T21:56:07.350Z,19.20
2022-09-26T21:58:39.003Z,18.30
2022-09-26T22:01:07.595Z,18.90
2022-09-26T22:03:35.842Z,16.20
2022-09-26T22:06:07.569Z,16.90
2022-09-26T22:08:37.494Z,19.60
2022-09-26T22:11:06.342Z,19.50
2022-09-26T22:13:37.996Z,17.00
2022-09-26T22:16:11.509Z,17.10
2022-09-26T22:18:40.514Z,16.30
2022-09-26T22:21:10.861Z,17.90
2022-09-26T22:23:39.162Z,17.60
2022-09-26T22:26:07.623Z,18.00
2022-09-26T22:28:36.145Z,19.00
2022-09-26T22:31:05.284Z,17.20
2022-09-26T22:33:34.341Z,18.30
2022-09-26T22:36:02.705Z,17.00
2022-09-26T22:38:32.763Z,17.50
2022-09-26T22:41:03.314Z,18.50
2022-09-26T22:43:33.100Z,16.50
2022-09-26T22:46:07.352Z,17.30
2022-09-26T22:48:37.748Z,18.80
2022-09-26T22:51:06.045Z,17.00
2022-09-26T22:53:37.040Z,16.80
2022-09-26T22:56:08.285Z,17.80
2022-09-26T22:58:54.729Z,19.30
2022-09-26T23:01:25.695Z,18.00
2022-09-26T23:03:54.238Z,21.30
2022-09-26T23:06:23.155Z,19.10
2022-09-26T23:08:51.778Z,20.00
2022-09-26T23:11:20.340Z,19.80
2022-09-26T23:13:52.035Z,19.90
2022-09-26T23:16:23.513Z,21.80
2022-09-26T23:18:52.313Z,22.70
2022-09-26T23:21:22.615Z,20.00
2022-09-26T23:23:53.212Z,20.70
2022-09-26T23:26:23.357Z,19.80
2022-09-26T23:28:52.652Z,21.20
2022-09-26T23:31:21.061Z,18.30
2022-09-26T23:33:49.379Z,18.20
2022-09-26T23:36:18.088Z,18.60
2022-09-26T23:38:46.706Z,18.50
2022-09-26T23:41:14.530Z,16.90
2022-09-26T23:43:42.732Z,17.70
2022-09-26T23:46:11.386Z,19.10
2022-09-26T23:48:39.641Z,21.20
2022-09-26T23:51:08.327Z,19.30
2022-09-26T23:53:36.357Z,18.10
2022-09-26T23:56:04.964Z,17.50
2022-09-26T23:58:33.412Z,17.10
